createdAt,value
2018-11-12T00:00:29.287Z,18.93
2018-11-12T00:02:58.904Z,25.97
2018-11-12T00:05:27.740Z,18.97
2018-11-12T00:07:56.379Z,16.27
2018-11-12T00:10:25.240Z,22.60
2018-11-12T00:12:53.871Z,16.17
2018-11-12T00:15:22.547Z,21.60
2018-11-12T00:17:51.288Z,20.10
2018-11-12T00:20:19.988Z,21.20
2018-11-12T00:22:48.638Z,17.90
2018-11-12T00:25:17.296Z,23.30
2018-11-12T00:27:45.948Z,14.60
2018-11-12T00:30:16.887Z,19.07
2018-11-12T00:32:46.248Z,15.57
2018-11-12T00:35:14.906Z,21.90
2018-11-12T00:37:44.152Z,19.23
2018-11-12T00:40:15.068Z,15.73
2018-11-12T00:42:44.139Z,15.97
2018-11-12T00:45:12.978Z,18.67
2018-11-12T00:47:41.896Z,22.37
2018-11-12T00:50:11.848Z,20.03
2018-11-12T00:52:40.473Z,16.13
2018-11-12T00:55:11.066Z,22.37
2018-11-12T00:57:40.156Z,15.97
2018-11-12T01:00:12.329Z,18.83
2018-11-12T01:02:42.448Z,19.80
2018-11-12T01:05:11.104Z,18.50
2018-11-12T01:07:39.712Z,19.87
2018-11-12T01:10:10.547Z,19.33
2018-11-12T01:12:39.436Z,20.70
2018-11-12T01:15:10.474Z,20.93
2018-11-12T01:17:39.160Z,21.93
2018-11-12T01:20:08.669Z,17.97
2018-11-12T01:22:37.333Z,19.50
2018-11-12T01:25:06.966Z,21.90
2018-11-12T01:27:35.644Z,20.17
2018-11-12T01:30:05.195Z,24.63
2018-11-12T01:32:33.823Z,19.23
2018-11-12T01:35:02.460Z,20.00
2018-11-12T01:37:31.080Z,16.83
2018-11-12T01:39:59.704Z,16.57
2018-11-12T01:42:28.334Z,18.43
2018-11-12T01:44:56.968Z,19.37
2018-11-12T01:47:25.580Z,19.37
2018-11-12T01:49:54.214Z,16.90
2018-11-12T01:52:22.853Z,19.13
2018-11-12T01:54:51.472Z,20.10
2018-11-12T01:57:20.224Z,21.57
2018-11-12T01:59:48.881Z,17.43
2018-11-12T02:02:17.571Z,16.67
2018-11-12T02:04:46.245Z,22.50
2018-11-12T02:07:14.875Z,30.27
2018-11-12T02:09:43.479Z,25.90
2018-11-12T02:12:12.128Z,24.43
2018-11-12T02:14:40.787Z,18.17
2018-11-12T02:17:09.453Z,21.33
2018-11-12T02:19:38.083Z,20.73
2018-11-12T02:22:06.790Z,14.37
2018-11-12T02:24:35.417Z,20.60
2018-11-12T02:27:04.091Z,15.93
2018-11-12T02:29:32.772Z,14.43
2018-11-12T02:32:01.402Z,23.50
2018-11-12T02:34:30.012Z,19.83
2018-11-12T02:36:58.645Z,22.33
2018-11-12T02:39:27.295Z,18.03
2018-11-12T02:41:55.923Z,15.63
2018-11-12T02:44:24.588Z,18.13
2018-11-12T02:46:53.209Z,18.23
2018-11-12T02:49:21.861Z,21.07
2018-11-12T02:51:50.498Z,23.03
2018-11-12T02:54:19.131Z,20.77
2018-11-12T02:56:47.760Z,23.67
2018-11-12T02:59:16.452Z,15.80
2018-11-12T03:01:45.096Z,24.30
2018-11-12T03:04:14.355Z,15.90
2018-11-12T03:06:43.020Z,25.30
2018-11-12T03:09:13.207Z,19.93
2018-11-12T03:11:42.328Z,17.70
2018-11-12T03:14:10.941Z,19.27
2018-11-12T03:16:39.816Z,18.47
2018-11-12T03:19:08.445Z,21.67
2018-11-12T03:21:37.069Z,18.27
2018-11-12T03:24:05.854Z,18.83
2018-11-12T03:26:34.471Z,18.10
2018-11-12T03:29:03.133Z,18.70
2018-11-12T03:31:31.769Z,21.30
2018-11-12T03:34:00.385Z,16.80
2018-11-12T03:36:29.064Z,20.40
2018-11-12T03:38:57.684Z,15.57
2018-11-12T03:41:26.316Z,17.70
2018-11-12T03:43:54.956Z,14.27
2018-11-12T03:46:23.656Z,19.43
2018-11-12T03:48:52.279Z,20.67
2018-11-12T03:51:20.913Z,22.67
2018-11-12T03:53:49.550Z,19.43
2018-11-12T03:56:18.207Z,19.53
2018-11-12T03:58:46.844Z,14.63
2018-11-12T04:01:15.481Z,22.53
2018-11-12T04:03:44.132Z,20.33
2018-11-12T04:06:12.799Z,16.77
2018-11-12T04:08:41.439Z,14.13
2018-11-12T04:11:10.035Z,14.00
2018-11-12T04:13:38.649Z,18.03
2018-11-12T04:16:07.307Z,18.00
2018-11-12T04:18:35.937Z,17.40
2018-11-12T04:21:04.733Z,13.43
2018-11-12T04:23:33.397Z,18.63
2018-11-12T04:26:02.015Z,17.10
2018-11-12T04:28:30.653Z,14.83
2018-11-12T04:30:59.265Z,15.53
2018-11-12T04:33:27.901Z,19.73
2018-11-12T04:35:56.530Z,21.97
2018-11-12T04:38:25.152Z,11.17
2018-11-12T04:40:53.827Z,20.37
2018-11-12T04:43:22.458Z,17.87
2018-11-12T04:45:51.082Z,20.50
2018-11-12T04:48:19.745Z,19.00
2018-11-12T04:50:48.388Z,13.73
2018-11-12T04:53:17.011Z,16.67
2018-11-12T04:55:45.629Z,16.07
2018-11-12T04:58:14.256Z,18.93
2018-11-12T05:00:42.880Z,17.73
2018-11-12T05:03:11.520Z,15.87
2018-11-12T05:05:40.151Z,20.20
2018-11-12T05:08:08.761Z,15.77
2018-11-12T05:10:37.372Z,17.77
2018-11-12T05:13:06.169Z,18.47
2018-11-12T05:15:34.775Z,16.27
2018-11-12T05:18:03.444Z,17.73
2018-11-12T05:20:32.076Z,14.63
2018-11-12T05:23:00.696Z,21.90
2018-11-12T05:25:29.343Z,19.90
2018-11-12T05:27:57.988Z,15.70
2018-11-12T05:30:27.777Z,15.00
2018-11-12T05:32:56.803Z,17.27
2018-11-12T05:35:26.659Z,24.23
2018-11-12T05:37:55.348Z,19.27
2018-11-12T05:40:26.084Z,16.57
2018-11-12T05:42:54.754Z,16.43
2018-11-12T05:45:24.583Z,18.63
2018-11-12T05:47:53.215Z,18.73
2018-11-12T05:50:23.132Z,18.63
2018-11-12T05:52:53.096Z,16.30
2018-11-12T05:55:23.111Z,15.80
2018-11-12T05:57:51.706Z,14.83
2018-11-12T06:00:28.207Z,15.50
2018-11-12T06:02:56.783Z,17.53
2018-11-12T06:05:25.374Z,15.80
2018-11-12T06:07:54.012Z,16.40
2018-11-12T06:10:25.719Z,13.13
2018-11-12T06:12:54.300Z,20.70
2018-11-12T06:15:22.895Z,13.30
2018-11-12T06:17:52.081Z,21.10
2018-11-12T06:20:24.023Z,12.83
2018-11-12T06:22:52.715Z,15.03
2018-11-12T06:25:22.800Z,9.97
2018-11-12T06:27:51.699Z,18.17
2018-11-12T06:30:22.428Z,11.30
2018-11-12T06:32:51.072Z,12.60
2018-11-12T06:35:20.208Z,20.87
2018-11-12T06:37:49.652Z,11.50
2018-11-12T06:40:20.444Z,12.87
2018-11-12T06:42:49.175Z,11.63
2018-11-12T06:45:19.562Z,10.30
2018-11-12T06:47:49.011Z,9.33
2018-11-12T06:50:18.931Z,17.70
2018-11-12T06:52:47.560Z,16.90
2018-11-12T06:55:16.759Z,19.40
2018-11-12T06:57:45.651Z,15.20
2018-11-12T07:00:16.541Z,12.10
2018-11-12T07:02:45.183Z,11.93
2018-11-12T07:05:14.267Z,10.93
2018-11-12T07:07:42.993Z,16.03
2018-11-12T07:10:13.479Z,15.17
2018-11-12T07:12:42.992Z,16.53
2018-11-12T07:15:12.999Z,13.77
2018-11-12T07:17:41.632Z,14.03
2018-11-12T07:20:12.589Z,15.50
2018-11-12T07:22:41.216Z,10.07
2018-11-12T07:25:10.780Z,14.00
2018-11-12T07:27:39.556Z,16.47
2018-11-12T07:30:12.267Z,15.40
2018-11-12T07:32:40.872Z,12.73
2018-11-12T07:35:11.007Z,15.97
2018-11-12T07:37:40.073Z,17.37
2018-11-12T07:40:09.696Z,12.37
2018-11-12T07:42:39.120Z,12.13
2018-11-12T07:45:09.831Z,17.90
2018-11-12T07:47:38.619Z,17.20
2018-11-12T07:50:10.443Z,15.27
2018-11-12T07:52:39.176Z,12.37
2018-11-12T07:55:10.305Z,16.17
2018-11-12T07:57:38.928Z,15.07
2018-11-12T08:00:12.700Z,13.60
2018-11-12T08:02:42.428Z,9.30
2018-11-12T08:05:11.752Z,14.33
2018-11-12T08:07:41.004Z,16.47
2018-11-12T08:10:12.184Z,11.47
2018-11-12T08:12:41.164Z,11.17
2018-11-12T08:15:11.260Z,12.10
2018-11-12T08:17:39.930Z,11.03
2018-11-12T08:20:10.676Z,9.83
2018-11-12T08:22:39.298Z,12.47
2018-11-12T08:25:09.201Z,10.70
2018-11-12T08:27:38.082Z,11.63
2018-11-12T08:30:10.377Z,12.13
2018-11-12T08:32:39.130Z,12.13
2018-11-12T08:35:16.849Z,13.53
2018-11-12T08:37:46.140Z,13.40
2018-11-12T08:40:16.397Z,11.23
2018-11-12T08:42:45.152Z,13.87
2018-11-12T08:45:14.075Z,14.77
2018-11-12T08:47:44.177Z,8.37
2018-11-12T08:50:14.931Z,15.73
2018-11-12T08:52:44.617Z,12.83
2018-11-12T08:55:15.071Z,17.33
2018-11-12T08:57:47.869Z,11.33
2018-11-12T09:00:17.146Z,15.63
2018-11-12T09:02:45.935Z,13.20
2018-11-12T09:05:15.640Z,10.87
2018-11-12T09:07:45.922Z,11.33
2018-11-12T09:10:16.413Z,14.23
2018-11-12T09:12:45.459Z,13.93
2018-11-12T09:15:14.371Z,13.13
2018-11-12T09:17:43.916Z,11.60
2018-11-12T09:20:17.168Z,10.10
2018-11-12T09:22:45.872Z,12.57
2018-11-12T09:25:15.847Z,8.30
2018-11-12T09:27:44.584Z,9.27
2018-11-12T09:30:16.024Z,8.93
2018-11-12T09:32:44.968Z,9.77
2018-11-12T09:35:21.210Z,9.13
2018-11-12T09:37:51.492Z,10.60
2018-11-12T09:40:21.618Z,14.43
2018-11-12T09:42:50.417Z,8.60
2018-11-12T09:45:19.103Z,9.43
2018-11-12T09:47:47.858Z,8.80
2018-11-12T09:50:17.800Z,8.37
2018-11-12T09:52:49.455Z,10.27
2018-11-12T09:55:18.837Z,9.37
2018-11-12T09:57:48.947Z,7.43
2018-11-12T10:00:18.842Z,8.57
2018-11-12T10:02:48.717Z,11.33
2018-11-12T10:05:18.198Z,12.03
2018-11-12T10:07:49.212Z,10.33
2018-11-12T10:10:36.705Z,7.73
2018-11-12T10:13:06.056Z,7.20
2018-11-12T10:15:35.918Z,8.70
2018-11-12T10:18:10.155Z,8.07
2018-11-12T10:20:29.972Z,8.97
2018-11-12T10:22:58.611Z,7.93
2018-11-12T10:25:27.263Z,10.90
2018-11-12T10:27:55.940Z,13.67
2018-11-12T10:30:24.593Z,7.03
2018-11-12T10:32:53.309Z,8.17
2018-11-12T10:35:21.980Z,9.17
2018-11-12T10:37:50.677Z,13.80
2018-11-12T10:40:23.501Z,9.70
2018-11-12T10:42:52.282Z,6.93
2018-11-12T10:45:21.053Z,13.03
2018-11-12T10:47:50.774Z,10.30
2018-11-12T10:50:19.584Z,9.30
2018-11-12T10:52:48.271Z,8.57
2018-11-12T10:55:18.362Z,12.83
2018-11-12T10:57:47.411Z,11.20
2018-11-12T11:00:30.797Z,10.43
2018-11-12T11:03:06.081Z,12.00
2018-11-12T11:05:35.374Z,10.20
2018-11-12T11:08:04.100Z,8.87
2018-11-12T11:10:32.788Z,9.67
2018-11-12T11:13:02.488Z,5.77
2018-11-12T11:15:31.911Z,8.43
2018-11-12T11:18:00.598Z,7.47
2018-11-12T11:20:29.516Z,12.30
2018-11-12T11:22:58.424Z,8.50
2018-11-12T11:25:27.136Z,6.23
2018-11-12T11:27:55.860Z,5.47
2018-11-12T11:30:24.540Z,6.83
2018-11-12T11:32:53.187Z,12.20
2018-11-12T11:35:22.147Z,10.17
2018-11-12T11:37:50.891Z,7.70
2018-11-12T11:40:24.768Z,9.80
2018-11-12T11:42:54.396Z,12.13
2018-11-12T11:45:23.184Z,11.20
2018-11-12T11:47:52.737Z,7.53
2018-11-12T11:50:22.859Z,8.10
2018-11-12T11:52:51.496Z,9.67
2018-11-12T11:55:21.420Z,12.50
2018-11-12T11:57:50.460Z,10.33
2018-11-12T12:00:24.361Z,9.80
2018-11-12T12:02:53.919Z,9.23
2018-11-12T12:05:23.420Z,12.17
2018-11-12T12:07:53.116Z,10.60
2018-11-12T12:10:21.805Z,8.83
2018-11-12T12:12:51.174Z,9.17
2018-11-12T12:15:20.519Z,8.87
2018-11-12T12:17:49.187Z,8.43
2018-11-12T12:20:19.247Z,12.07
2018-11-12T12:22:47.910Z,14.13
2018-11-12T12:25:17.367Z,11.20
2018-11-12T12:27:46.469Z,11.77
2018-11-12T12:30:17.207Z,11.37
2018-11-12T12:32:46.723Z,11.20
2018-11-12T12:35:15.488Z,16.30
2018-11-12T12:37:44.899Z,12.23
2018-11-12T12:40:15.902Z,12.30
2018-11-12T12:42:44.537Z,11.57
2018-11-12T12:45:14.521Z,10.40
2018-11-12T12:47:43.620Z,13.40
2018-11-12T12:50:13.261Z,12.17
2018-11-12T12:52:41.905Z,15.83
2018-11-12T12:55:11.545Z,14.30
2018-11-12T12:57:40.948Z,12.80
2018-11-12T13:00:21.692Z,9.90
2018-11-12T13:02:50.384Z,12.03
2018-11-12T13:05:19.063Z,9.70
2018-11-12T13:07:47.751Z,9.57
2018-11-12T13:10:17.702Z,13.73
2018-11-12T13:12:46.356Z,10.27
2018-11-12T13:15:16.232Z,15.80
2018-11-12T13:17:45.704Z,16.57
2018-11-12T13:20:15.624Z,14.20
2018-11-12T13:22:44.961Z,11.90
2018-11-12T13:25:13.731Z,10.03
2018-11-12T13:27:42.876Z,11.17
2018-11-12T13:30:14.654Z,13.57
2018-11-12T13:32:43.958Z,7.90
2018-11-12T13:35:13.932Z,15.00
2018-11-12T13:37:42.785Z,8.83
2018-11-12T13:40:17.098Z,11.47
2018-11-12T13:42:49.038Z,14.90
2018-11-12T13:45:17.693Z,11.27
2018-11-12T13:47:46.808Z,12.37
2018-11-12T13:50:16.867Z,16.90
2018-11-12T13:52:45.818Z,13.07
2018-11-12T13:55:15.400Z,14.40
2018-11-12T13:57:44.057Z,14.47
2018-11-12T14:00:14.646Z,13.83
2018-11-12T14:02:44.041Z,9.77
2018-11-12T14:05:14.469Z,14.47
2018-11-12T14:07:43.544Z,13.10
2018-11-12T14:10:13.389Z,10.37
2018-11-12T14:12:42.527Z,13.63
2018-11-12T14:15:14.071Z,9.53
2018-11-12T14:17:43.119Z,13.67
2018-11-12T14:20:11.897Z,17.23
2018-11-12T14:22:40.572Z,9.23
2018-11-12T14:25:10.703Z,9.50
2018-11-12T14:27:39.392Z,11.10
2018-11-12T14:30:10.645Z,13.17
2018-11-12T14:32:39.329Z,10.97
2018-11-12T14:35:08.837Z,12.27
2018-11-12T14:37:37.544Z,14.47
2018-11-12T14:40:07.449Z,10.50
2018-11-12T14:42:36.165Z,10.80
2018-11-12T14:45:05.506Z,14.60
2018-11-12T14:47:34.197Z,7.97
2018-11-12T14:50:02.868Z,9.37
2018-11-12T14:55:13.256Z,12.43
2018-11-12T14:57:41.949Z,9.27
2018-11-12T15:00:13.469Z,6.63
2018-11-12T15:02:42.113Z,13.20
2018-11-12T15:05:10.964Z,13.53
2018-11-12T15:07:39.656Z,14.67
2018-11-12T15:10:09.787Z,9.40
2018-11-12T15:12:38.455Z,10.83
2018-11-12T15:15:08.541Z,9.33
2018-11-12T15:17:37.276Z,9.67
2018-11-12T15:20:07.904Z,15.73
2018-11-12T15:22:36.628Z,10.53
2018-11-12T15:25:07.519Z,17.03
2018-11-12T15:27:36.192Z,11.37
2018-11-12T15:30:07.056Z,9.47
2018-11-12T15:32:35.738Z,12.47
2018-11-12T15:35:04.871Z,8.60
2018-11-12T15:37:33.654Z,10.57
2018-11-12T15:40:02.380Z,10.57
2018-11-12T15:42:31.033Z,10.33
2018-11-12T15:44:59.671Z,8.37
2018-11-12T15:47:28.292Z,10.97
2018-11-12T15:49:56.948Z,8.37
2018-11-12T15:52:25.568Z,8.60
2018-11-12T15:54:54.326Z,13.20
2018-11-12T15:57:23.134Z,11.77
2018-11-12T15:59:51.672Z,16.80
2018-11-12T16:02:20.316Z,12.30
2018-11-12T16:04:48.923Z,14.40
2018-11-12T16:07:17.573Z,7.20
2018-11-12T16:09:46.212Z,11.87
2018-11-12T16:12:14.886Z,12.93
2018-11-12T16:14:43.543Z,11.87
2018-11-12T16:17:12.168Z,8.97
2018-11-12T16:19:40.799Z,10.73
2018-11-12T16:22:09.437Z,10.27
2018-11-12T16:24:38.053Z,13.57
2018-11-12T16:27:06.751Z,11.20
2018-11-12T16:29:35.386Z,8.40
2018-11-12T16:32:04.044Z,12.57
2018-11-12T16:34:32.676Z,9.43
2018-11-12T16:37:01.341Z,11.80
2018-11-12T16:39:29.954Z,13.37
2018-11-12T16:41:58.648Z,10.77
2018-11-12T16:44:27.273Z,11.27
2018-11-12T16:46:55.913Z,15.07
2018-11-12T16:49:24.568Z,11.57
2018-11-12T16:51:53.925Z,11.93
2018-11-12T16:54:22.572Z,12.93
2018-11-12T16:56:51.257Z,12.60
2018-11-12T16:59:19.924Z,11.83
2018-11-12T17:01:48.558Z,12.53
2018-11-12T17:04:17.234Z,14.73
2018-11-12T17:06:45.893Z,11.90
2018-11-12T17:09:14.528Z,10.33
2018-11-12T17:11:43.259Z,12.60
2018-11-12T17:14:11.876Z,13.07
2018-11-12T17:16:40.579Z,14.63
2018-11-12T17:19:09.278Z,16.83
2018-11-12T17:21:37.945Z,16.13
2018-11-12T17:24:06.617Z,7.00
2018-11-12T17:26:35.238Z,12.00
2018-11-12T17:29:04.020Z,12.00
2018-11-12T17:31:32.641Z,9.30
2018-11-12T17:34:01.317Z,10.90
2018-11-12T17:36:29.994Z,13.63
2018-11-12T17:38:58.904Z,11.03
2018-11-12T17:41:27.680Z,16.33
2018-11-12T17:43:56.433Z,11.03
2018-11-12T17:46:25.081Z,9.43
2018-11-12T17:48:53.709Z,14.50
2018-11-12T17:51:22.361Z,10.93
2018-11-12T17:53:51.003Z,11.30
2018-11-12T17:56:19.679Z,13.10
2018-11-12T17:58:48.293Z,10.83
2018-11-12T18:01:16.975Z,13.83
2018-11-12T18:03:45.616Z,10.53
2018-11-12T18:06:14.308Z,14.70
2018-11-12T18:08:43.085Z,15.10
2018-11-12T18:11:11.721Z,15.07
2018-11-12T18:13:40.377Z,12.27
2018-11-12T18:16:09.096Z,12.60
2018-11-12T18:18:37.771Z,13.73
2018-11-12T18:21:06.428Z,11.70
2018-11-12T18:23:35.068Z,11.53
2018-11-12T18:26:03.798Z,11.30
2018-11-12T18:28:32.461Z,8.80
2018-11-12T18:31:01.254Z,9.13
2018-11-12T18:33:29.821Z,15.70
2018-11-12T18:35:58.476Z,12.57
2018-11-12T18:38:27.108Z,14.23
2018-11-12T18:40:55.754Z,10.37
2018-11-12T18:43:24.407Z,10.57
2018-11-12T18:45:53.048Z,11.93
2018-11-12T18:48:21.724Z,11.33
2018-11-12T18:50:50.346Z,14.00
2018-11-12T18:53:18.992Z,12.10
2018-11-12T18:55:47.628Z,15.50
2018-11-12T18:58:16.266Z,12.67
2018-11-12T19:00:44.926Z,11.37
2018-11-12T19:03:13.564Z,11.67
2018-11-12T19:05:42.191Z,12.30
2018-11-12T19:08:10.821Z,13.57
2018-11-12T19:10:39.456Z,12.77
2018-11-12T19:13:08.123Z,13.67
2018-11-12T19:15:37.748Z,11.63
2018-11-12T19:18:08.603Z,13.00
2018-11-12T19:20:37.264Z,12.77
2018-11-12T19:23:06.385Z,13.17
2018-11-12T19:25:35.068Z,12.23
2018-11-12T19:28:03.736Z,10.50
2018-11-12T19:30:32.453Z,13.60
2018-11-12T19:33:01.099Z,14.27
2018-11-12T19:35:31.064Z,16.23
2018-11-12T19:37:59.712Z,10.53
2018-11-12T19:40:29.590Z,12.10
2018-11-12T19:42:58.361Z,13.43
2018-11-12T19:45:27.120Z,10.13
2018-11-12T19:47:55.816Z,12.70
2018-11-12T19:50:25.812Z,16.30
2018-11-12T19:52:55.608Z,12.03
2018-11-12T19:55:24.233Z,12.43
2018-11-12T19:57:52.877Z,12.07
2018-11-12T20:00:22.866Z,11.13
2018-11-12T20:02:52.688Z,11.57
2018-11-12T20:05:21.356Z,15.83
2018-11-12T20:07:50.007Z,13.07
2018-11-12T20:10:19.925Z,12.87
2018-11-12T20:12:48.564Z,17.73
2018-11-12T20:15:18.586Z,12.67
2018-11-12T20:17:48.200Z,17.10
2018-11-12T20:20:21.395Z,15.07
2018-11-12T20:22:50.486Z,11.07
2018-11-12T20:25:19.781Z,12.57
2018-11-12T20:27:49.075Z,18.53
2018-11-12T20:30:26.452Z,14.63
2018-11-12T20:32:55.123Z,10.83
2018-11-12T20:35:23.792Z,12.07
2018-11-12T20:37:52.433Z,12.80
2018-11-12T20:40:21.025Z,16.60
2018-11-12T20:42:50.003Z,17.43
2018-11-12T20:45:19.839Z,11.70
2018-11-12T20:47:49.769Z,13.93
2018-11-12T20:50:18.492Z,14.30
2018-11-12T20:52:47.199Z,15.87
2018-11-12T20:55:16.612Z,14.93
2018-11-12T20:57:45.491Z,13.80
2018-11-12T21:00:17.323Z,13.27
2018-11-12T21:02:47.136Z,13.70
2018-11-12T21:05:16.261Z,12.60
2018-11-12T21:07:44.891Z,19.47
2018-11-12T21:10:16.089Z,13.50
2018-11-12T21:12:45.195Z,13.93
2018-11-12T21:15:14.807Z,18.80
2018-11-12T21:17:43.683Z,15.47
2018-11-12T21:20:21.516Z,18.77
2018-11-12T21:22:50.335Z,15.90
2018-11-12T21:25:22.890Z,14.40
2018-11-12T21:27:51.625Z,18.97
2018-11-12T21:30:21.547Z,13.03
2018-11-12T21:32:50.236Z,15.73
2018-11-12T21:35:18.867Z,13.47
2018-11-12T21:37:48.043Z,11.40
2018-11-12T21:40:20.155Z,17.63
2018-11-12T21:42:48.826Z,12.87
2018-11-12T21:45:19.094Z,13.83
2018-11-12T21:47:47.723Z,14.47
2018-11-12T21:50:17.616Z,19.30
2018-11-12T21:52:46.263Z,15.33
2018-11-12T21:55:14.869Z,17.23
2018-11-12T21:57:43.924Z,11.00
2018-11-12T22:00:22.899Z,16.17
2018-11-12T22:02:52.997Z,14.67
2018-11-12T22:05:21.700Z,15.67
2018-11-12T22:07:50.312Z,12.83
2018-11-12T22:10:19.272Z,13.40
2018-11-12T22:12:48.972Z,14.67
2018-11-12T22:15:17.593Z,13.13
2018-11-12T22:17:46.228Z,10.90
2018-11-12T22:20:16.169Z,12.83
2018-11-12T22:22:44.960Z,8.93
2018-11-12T22:25:16.880Z,10.47
2018-11-12T22:27:46.135Z,10.93
2018-11-12T22:30:15.920Z,8.17
2018-11-12T22:32:45.935Z,9.67
2018-11-12T22:35:14.596Z,8.87
2018-11-12T22:37:43.827Z,12.97
2018-11-12T22:40:13.217Z,15.83
2018-11-12T22:42:42.619Z,10.70
2018-11-12T22:45:13.091Z,10.97
2018-11-12T22:47:42.040Z,11.53
2018-11-12T22:50:11.160Z,10.10
2018-11-12T22:52:40.234Z,9.50
2018-11-12T22:55:10.148Z,12.20
2018-11-12T22:57:38.841Z,8.70
2018-11-12T23:00:18.056Z,8.80
2018-11-12T23:02:47.012Z,13.83
2018-11-12T23:05:16.177Z,13.27
2018-11-12T23:07:45.478Z,14.67
2018-11-12T23:10:14.448Z,11.17
2018-11-12T23:12:43.115Z,15.57
2018-11-12T23:15:12.385Z,12.20
2018-11-12T23:17:41.234Z,12.27
2018-11-12T23:20:16.969Z,12.37
2018-11-12T23:22:46.472Z,12.47
2018-11-12T23:25:15.115Z,13.23
2018-11-12T23:27:44.507Z,14.07
2018-11-12T23:30:14.814Z,7.30
2018-11-12T23:32:43.451Z,8.63
2018-11-12T23:35:14.330Z,7.30
2018-11-12T23:37:43.619Z,9.97
2018-11-12T23:40:12.731Z,9.83
2018-11-12T23:42:41.807Z,7.33
2018-11-12T23:45:10.608Z,10.10
2018-11-12T23:47:39.519Z,11.80
2018-11-12T23:50:10.377Z,9.33
2018-11-12T23:52:39.189Z,15.53
2018-11-12T23:55:07.896Z,9.93
2018-11-12T23:57:36.534Z,12.00
